Station: Charles Point

  Atmospheric Gas Attenuation - ITU Rec 676-11   --------------- db/100km ---------------
Date Time Temp RH % AH g/m3 Dew Point Wind Direction Speed kph Gust kph Barometer mB Rainfall Since 9am 24GHz 47GHz 76GHz 122GHz 134GHz 241GHz
11 21:20 28.7 6 6 1013.1 0
11 21:10 28.7 7 11 1013.1 0
11 21:00 28.6 6 11 1010.2 0
11 20:50 28.8 9 11 1013.1 0
11 20:40 28.8 7 15 1013.1 0
11 20:30 28.7 6 9 1009.8 0
11 20:20 28.8 6 11 1013.1 0
11 20:10 28.7 6 7 1013.1 0
11 20:00 28.4 6 11 1009.7 0
11 19:50 28.4 6 9 1013.1 0
11 19:40 28.1 7 7 1013.1 0
11 19:30 27.6 4 7 1009.3 0
11 19:20 27.4 4 6 1013.1 0
11 19:10 27.4 4 6 1013.1 0
11 19:00 27.6 6 7 1008.8 0
11 18:50 28 2 4 1013.1 0
11 18:40 28 7 11 1013.1 0
11 18:30 27.8 13 24 1008.5 0
11 18:20 29.5 11 15 1013.1 0
11 18:10 30.4 7 11 1013.1 0
11 18:00 30.3 7 13 1008.4 0
11 17:50 30.6 7 11 1013.1 0
11 17:40 30.7 11 15 1013.1 0
11 17:30 30.9 9 19 1008.2 0
11 17:20 31.2 9 15 1013.1 0
11 17:10 31.3 7 13 1013.1 0
11 17:00 31.2 11 20 1008.2 0
11 16:50 31.3 11 15 1013.1 0
11 16:40 31.4 11 17 1013.1 0
11 16:30 31.5 9 17 1008.2 0
11 16:20 31.4 7 13 1013.1 0
11 16:10 31.5 11 19 1013.1 0
11 16:00 31.8 13 22 1008.2 0
11 15:50 31.7 9 15 1013.1 0
11 15:40 32 9 15 1013.1 0
11 15:30 31.7 11 24 1007.9 0
11 15:20 31.9 13 17 1013.1 0
11 15:10 31.4 9 13 1013.1 0
11 15:00 31.5 11 19 1008.2 0
11 14:50 31.8 13 17 1013.1 0
11 14:40 31.1 9 13 1013.1 0
11 14:30 31.1 9 17 1008.4 0
11 14:20 31.4 7 11 1013.1 0
11 14:10 31.4 7 9 1013.1 0
11 14:00 31.9 13 20 1008.7 0
11 13:50 31.5 11 15 1013.1 0
11 13:40 31.8 7 9 1013.1 0
11 13:30 32.3 13 19 1009.4 0
11 13:20 32.3 9 15 1013.1 0
11 13:10 32.1 11 13 1013.1 0
11 13:00 32.2 11 17 1009.8 0
11 12:50 32.3 13 19 1013.1 0
11 12:40 32 9 19 1013.1 0
11 12:30 32.1 11 17 1010.3 0
11 12:20 32.1 11 15 1013.1 0
11 12:10 32.2 9 13 1013.1 0
11 12:00 32 11 17 1010.8 0
11 11:50 32 9 11 1013.1 0
11 11:40 32 11 13 1013.1 0
11 11:30 32 11 17 1011.2 0
11 11:20 31.9 11 15 1013.1 0
11 11:10 31.6 9 9 1013.1 0
11 11:00 31.5 9 15 1011.5 0
11 10:50 31.3 9 15 1013.1 0
11 10:40 31.4 9 11 1013.1 0
11 10:30 31.2 11 15 1011.5 0
11 10:20 31 9 9 1013.1 0
11 10:10 31 7 9 1013.1 0
11 10:00 30.7 7 11 1011.5 0
11 09:50 30.4 7 9 1013.1 0
11 09:40 29.9 7 7 1013.1 0
11 09:30 30 4 6 1011.4 0
11 09:20 30 2 4 1013.1 0
11 09:10 29.3 0 0 1013.1 0
11 09:00 29.1 0 0 1011.4 0
11 08:50 29 0 0 1013.1 0
11 08:40 28.3 0 0 1013.1 0
11 08:30 27.7 0 0 1011 0
11 08:20 27.3 0 0 1013.1 0
11 08:10 26.9 0 0 1013.1 0
11 08:00 26.3 0 0 1010.7 0
11 07:50 25.9 0 0 1013.1 0
11 07:40 25.8 0 0 1013.1 0
11 07:30 25.7 0 0 1010.4 0
11 07:20 25.7 0 0 1013.1 0
11 07:10 25.6 0 0 1013.1 0
11 07:00 25.5 0 0 1010.1 0
11 06:50 25.5 0 0 1013.1 0
11 06:40 25.5 0 0 1013.1 0
11 06:30 25.5 0 0 1010 0
11 06:20 25.5 0 0 1013.1 0
11 06:10 25.5 0 0 1013.1 0
11 06:00 25.5 0 0 1009.8 0
11 05:50 25.5 0 0 1013.1 0
11 05:40 25.4 0 0 1013.1 0
11 04:50 25.1 0 0 1013.1 0
11 04:40 25.1 0 0 1013.1 0
11 04:30 25 0 0 1009.4 0
11 04:20 24.9 0 0 1013.1 0
11 04:10 24.9 0 0 1013.1 0

Last Refresh: 11-Apr-2021 21:39:28

Bureau of Meteorology